Time;durP1;ratioP1;P1;durP2;ratioP2;P2;SDS_P1;SDS_P2;PMS_P1;PMS_P2;Temp;Humidity;BMP_temperature;BMP_pressure;BME280_temperature;BME280_humidity;BME280_pressure;Samples;Min_cycle;Max_cycle;Signal;HPM_P1;HPM_P2
2022/05/12 00:00:23;;;;;;;6.57;1.15;;;12.00;99.90;;;;;;5047597;28;20475;-67
2022/05/12 00:02:49;;;;;;;6.18;1.35;;;11.90;99.90;;;;;;5048156;28;20178;-67
2022/05/12 00:05:16;;;;;;;5.95;0.98;;;11.90;99.90;;;;;;5047425;28;20032;-67
2022/05/12 00:07:43;;;;;;;8.65;0.73;;;11.90;99.90;;;;;;5047951;28;20400;-68
2022/05/12 00:10:10;;;;;;;6.95;1.10;;;11.90;99.90;;;;;;5046492;28;20048;-68
2022/05/12 00:12:37;;;;;;;7.78;1.00;;;11.90;99.90;;;;;;5047252;28;20087;-67
2022/05/12 00:15:06;;;;;;;7.78;1.00;;;11.90;99.90;;;;;;5046111;28;20028;-68
2022/05/12 00:17:31;;;;;;;7.38;0.93;;;11.80;99.90;;;;;;5045648;28;20439;-68
2022/05/12 00:19:57;;;;;;;7.93;1.02;;;11.80;99.90;;;;;;5048246;28;20032;-69
2022/05/12 00:22:22;;;;;;;7.68;1.33;;;11.80;99.90;;;;;;5047431;28;20036;-68
2022/05/12 00:24:48;;;;;;;10.75;0.93;;;11.80;99.90;;;;;;5046427;28;20029;-69
2022/05/12 00:27:14;;;;;;;8.70;0.88;;;11.80;99.90;;;;;;5046101;28;20090;-69
2022/05/12 00:29:39;;;;;;;14.65;1.58;;;11.80;99.90;;;;;;5047701;28;20104;-68
2022/05/12 00:32:05;;;;;;;9.68;0.93;;;11.70;99.90;;;;;;5045879;28;20040;-67
2022/05/12 00:34:31;;;;;;;9.60;1.20;;;11.70;99.90;;;;;;5047242;28;20428;-68
2022/05/12 00:36:56;;;;;;;6.43;0.70;;;11.70;99.90;;;;;;5047927;28;20029;-67
2022/05/12 00:39:22;;;;;;;8.43;1.45;;;11.70;99.90;;;;;;5043977;28;20025;-66
2022/05/12 00:41:47;;;;;;;8.00;1.00;;;11.60;99.90;;;;;;5047595;28;20033;-69
2022/05/12 00:44:15;;;;;;;4.95;1.10;;;11.60;99.90;;;;;;5045488;28;20032;-67
2022/05/12 00:46:42;;;;;;;6.72;1.05;;;11.60;99.90;;;;;;5045674;28;20112;-67
2022/05/12 00:49:21;;;;;;;9.35;2.00;;;11.60;99.90;;;;;;5045679;28;20481;-66
2022/05/12 00:52:00;;;;;;;4.35;1.00;;;11.60;99.90;;;;;;5047907;28;20041;-68
2022/05/12 00:54:33;;;;;;;10.65;1.20;;;11.60;99.90;;;;;;5047565;28;20665;-67
2022/05/12 00:57:00;;;;;;;8.27;0.95;;;11.50;99.90;;;;;;5047891;28;20109;-69
2022/05/12 00:59:33;;;;;;;9.07;1.10;;;11.50;99.90;;;;;;5040259;28;20032;-68
2022/05/12 01:02:01;;;;;;;6.47;1.33;;;11.50;99.90;;;;;;5048127;28;20040;-68
2022/05/12 01:04:29;;;;;;;7.47;1.85;;;11.50;99.90;;;;;;5039760;28;20077;-68
2022/05/12 01:06:55;;;;;;;6.80;1.10;;;11.50;99.90;;;;;;5039881;28;20397;-68
2022/05/12 01:09:21;;;;;;;9.13;0.80;;;11.50;99.90;;;;;;5047215;28;20041;-68
2022/05/12 01:11:48;;;;;;;7.57;0.95;;;11.50;99.90;;;;;;5047624;28;20072;-68
2022/05/12 01:14:15;;;;;;;9.00;1.15;;;11.40;99.90;;;;;;5050696;28;20143;-67
2022/05/12 01:16:47;;;;;;;5.55;0.90;;;11.40;99.90;;;;;;5050491;28;20041;-68
2022/05/12 01:19:25;;;;;;;7.32;1.00;;;11.40;99.90;;;;;;5050941;28;20057;-68
2022/05/12 01:21:51;;;;;;;6.22;1.10;;;11.30;99.90;;;;;;5050925;28;20044;-68
2022/05/12 01:24:19;;;;;;;6.93;0.90;;;11.30;99.90;;;;;;5048975;28;20393;-68
2022/05/12 01:26:45;;;;;;;6.80;1.02;;;11.30;99.90;;;;;;5050730;28;20087;-68
2022/05/12 01:29:11;;;;;;;10.85;1.80;;;11.30;99.90;;;;;;5050884;28;20032;-68
2022/05/12 01:31:38;;;;;;;8.88;1.30;;;11.30;99.90;;;;;;5051218;28;20095;-69
2022/05/12 01:34:07;;;;;;;6.05;1.00;;;11.20;99.90;;;;;;5050106;28;20025;-67
2022/05/12 01:36:33;;;;;;;9.02;1.20;;;11.20;99.90;;;;;;5050420;28;20102;-68
2022/05/12 01:38:59;;;;;;;11.70;1.02;;;11.20;99.90;;;;;;5047091;28;20485;-67
2022/05/12 01:41:24;;;;;;;7.32;1.02;;;11.20;99.90;;;;;;5050564;28;20045;-67
2022/05/12 01:43:50;;;;;;;6.18;1.67;;;11.20;99.90;;;;;;5049746;28;20163;-67
2022/05/12 01:46:15;;;;;;;9.00;1.08;;;11.20;99.90;;;;;;5048631;28;20037;-66
2022/05/12 01:48:41;;;;;;;10.98;1.52;;;11.20;99.90;;;;;;5050233;28;20025;-67
2022/05/12 01:51:07;;;;;;;6.32;1.65;;;11.20;99.90;;;;;;5050013;28;20049;-69
2022/05/12 01:53:33;;;;;;;5.90;1.35;;;11.10;99.90;;;;;;5048566;28;20114;-68
2022/05/12 01:56:00;;;;;;;5.75;1.30;;;11.10;99.90;;;;;;5050625;28;20036;-68
2022/05/12 01:58:26;;;;;;;3.13;1.10;;;11.10;99.90;;;;;;5048901;28;20056;-67
2022/05/12 02:00:52;;;;;;;5.18;1.40;;;11.00;99.90;;;;;;5050516;28;20489;-68
2022/05/12 02:03:18;;;;;;;8.40;1.52;;;11.00;99.90;;;;;;5048397;28;20146;-67
2022/05/12 02:05:45;;;;;;;7.22;1.20;;;11.00;99.90;;;;;;5050029;28;20412;-67
2022/05/12 02:08:12;;;;;;;6.93;1.65;;;11.00;99.90;;;;;;5049421;28;20025;-67
2022/05/12 02:10:40;;;;;;;7.80;1.67;;;11.00;99.90;;;;;;5049423;28;20607;-68
2022/05/12 02:13:09;;;;;;;8.27;2.15;;;11.00;99.90;;;;;;5049958;28;20032;-67
2022/05/12 02:15:35;;;;;;;5.55;1.13;;;11.00;99.90;;;;;;5048289;28;20042;-68
2022/05/12 02:18:01;;;;;;;4.43;1.70;;;10.90;99.90;;;;;;5049655;28;20039;-68
2022/05/12 02:20:27;;;;;;;3.97;1.40;;;10.90;99.90;;;;;;5049905;28;20033;-67
2022/05/12 02:22:53;;;;;;;7.00;1.85;;;10.90;99.90;;;;;;5048022;28;20493;-67
2022/05/12 02:25:18;;;;;;;6.50;1.50;;;10.90;99.90;;;;;;5045389;28;20044;-66
2022/05/12 02:27:49;;;;;;;11.95;2.55;;;10.90;99.90;;;;;;5047824;28;20064;-66
2022/05/12 02:30:28;;;;;;;5.07;2.55;;;10.90;99.90;;;;;;5048089;28;20125;-67
2022/05/12 02:32:54;;;;;;;3.05;1.27;;;10.90;99.90;;;;;;5041904;28;20040;-67
2022/05/12 02:35:20;;;;;;;7.88;1.85;;;10.90;99.90;;;;;;5048779;28;20041;-68
2022/05/12 02:37:46;;;;;;;11.25;2.08;;;10.90;99.90;;;;;;5049016;28;20033;-67
2022/05/12 02:40:14;;;;;;;8.50;1.35;;;10.80;99.90;;;;;;5047744;28;20032;-68
2022/05/12 02:42:39;;;;;;;4.82;1.50;;;10.90;99.90;;;;;;5049075;28;20041;-67
2022/05/12 02:45:07;;;;;;;2.38;1.42;;;10.80;99.90;;;;;;5049032;28;20107;-68
2022/05/12 02:47:33;;;;;;;6.38;1.80;;;10.90;99.90;;;;;;5048922;28;20493;-67
2022/05/12 02:49:59;;;;;;;5.30;1.48;;;10.80;99.90;;;;;;5048779;28;20120;-68
2022/05/12 02:52:24;;;;;;;6.15;2.05;;;10.80;99.90;;;;;;5048290;28;20568;-66
2022/05/12 02:54:50;;;;;;;6.88;1.73;;;10.80;99.90;;;;;;5049193;28;20614;-69
2022/05/12 02:57:16;;;;;;;4.82;2.25;;;10.80;99.90;;;;;;5046937;28;20041;-69
2022/05/12 02:59:41;;;;;;;4.10;1.52;;;10.70;99.90;;;;;;5048979;28;20051;-67
2022/05/12 03:02:07;;;;;;;5.43;1.92;;;10.70;99.90;;;;;;5048720;28;20112;-67
2022/05/12 03:04:33;;;;;;;5.60;1.33;;;10.70;99.90;;;;;;5048995;28;20065;-69
2022/05/12 03:06:59;;;;;;;3.90;1.73;;;10.70;99.90;;;;;;5048826;28;20025;-69
2022/05/12 03:09:25;;;;;;;5.18;2.22;;;10.60;99.90;;;;;;5048848;28;20037;-68
2022/05/12 03:11:51;;;;;;;4.22;1.70;;;10.60;99.90;;;;;;5048667;28;20047;-68
2022/05/12 03:14:17;;;;;;;6.13;1.42;;;10.60;99.90;;;;;;5048243;28;20025;-66
2022/05/12 03:16:42;;;;;;;4.80;1.98;;;10.50;99.90;;;;;;5046961;28;20033;-68
2022/05/12 03:19:08;;;;;;;7.88;1.83;;;10.50;99.90;;;;;;5048481;28;20032;-69
2022/05/12 03:21:34;;;;;;;7.78;2.28;;;10.50;99.90;;;;;;5048244;28;20111;-69
2022/05/12 03:24:00;;;;;;;7.40;2.85;;;10.50;99.90;;;;;;5047494;28;20417;-68
2022/05/12 03:26:26;;;;;;;7.60;1.60;;;10.40;99.90;;;;;;5044920;28;20029;-67
2022/05/12 03:28:52;;;;;;;6.20;2.33;;;10.40;99.90;;;;;;5048402;28;20098;-67
2022/05/12 03:31:18;;;;;;;6.05;2.28;;;10.40;99.90;;;;;;5048215;28;20119;-68
2022/05/12 03:33:46;;;;;;;5.95;2.42;;;10.40;99.90;;;;;;5046614;28;20124;-67
2022/05/12 03:36:12;;;;;;;4.43;1.83;;;10.30;99.90;;;;;;5048182;28;20083;-68
2022/05/12 03:38:38;;;;;;;6.13;1.80;;;10.30;99.90;;;;;;5047668;28;20048;-72
2022/05/12 03:41:05;;;;;;;4.38;1.85;;;10.30;99.90;;;;;;5048404;28;20086;-67
2022/05/12 03:46:15;;;;;;;5.00;1.75;;;10.20;99.90;;;;;;5040425;28;20064;-68
2022/05/12 03:48:41;;;;;;;9.75;2.15;;;10.20;99.90;;;;;;5042048;28;20033;-66
2022/05/12 03:51:07;;;;;;;8.30;2.85;;;10.20;99.90;;;;;;5047097;28;20516;-68
2022/05/12 03:53:34;;;;;;;5.05;2.63;;;10.20;99.90;;;;;;5048673;28;20412;-67
2022/05/12 03:56:00;;;;;;;6.53;2.72;;;10.20;99.90;;;;;;5048392;28;20373;-66
2022/05/12 03:58:26;;;;;;;6.72;2.28;;;10.20;99.90;;;;;;5048932;28;20441;-67
2022/05/12 04:00:53;;;;;;;7.32;2.28;;;10.20;99.90;;;;;;5048156;28;20428;-68
2022/05/12 04:03:19;;;;;;;3.60;2.17;;;10.20;99.90;;;;;;5047961;28;20382;-67
2022/05/12 04:05:45;;;;;;;3.17;1.52;;;10.20;99.90;;;;;;5047376;28;20036;-67
2022/05/12 04:08:11;;;;;;;6.45;2.80;;;10.10;99.90;;;;;;5046709;28;20051;-68
2022/05/12 04:10:37;;;;;;;4.40;2.33;;;10.20;99.90;;;;;;5047913;28;20052;-68
2022/05/12 04:13:03;;;;;;;5.47;2.22;;;10.10;99.90;;;;;;5046258;28;20033;-67
2022/05/12 04:15:30;;;;;;;5.22;2.70;;;10.20;99.90;;;;;;5046879;28;20568;-67
2022/05/12 04:17:57;;;;;;;4.88;2.03;;;10.20;99.90;;;;;;5047673;28;20119;-67
2022/05/12 04:20:24;;;;;;;4.18;2.00;;;10.20;99.90;;;;;;5048015;28;20041;-68
2022/05/12 04:22:50;;;;;;;5.88;2.70;;;10.20;99.90;;;;;;5046364;28;20098;-67
2022/05/12 04:25:16;;;;;;;4.63;1.95;;;10.20;99.90;;;;;;5043387;28;20033;-66
2022/05/12 04:27:42;;;;;;;8.02;2.28;;;10.20;99.90;;;;;;5046771;28;20051;-66
2022/05/12 04:30:11;;;;;;;3.33;2.00;;;10.20;99.90;;;;;;5046799;28;20102;-66
2022/05/12 04:32:37;;;;;;;3.72;1.98;;;10.20;99.90;;;;;;5038699;28;20045;-68
2022/05/12 04:35:13;;;;;;;6.65;2.70;;;10.20;99.90;;;;;;5035947;28;20151;-69
2022/05/12 04:37:44;;;;;;;4.35;2.38;;;10.20;99.90;;;;;;5037791;28;20124;-67
2022/05/12 04:40:19;;;;;;;5.13;1.88;;;10.20;99.90;;;;;;5032942;28;20026;-67
2022/05/12 04:42:47;;;;;;;6.88;2.45;;;10.30;99.90;;;;;;5041587;28;20040;-67
2022/05/12 04:45:13;;;;;;;5.35;1.85;;;10.30;99.90;;;;;;5039971;28;20053;-67
2022/05/12 04:47:40;;;;;;;5.72;2.13;;;10.30;99.90;;;;;;5051577;28;20144;-68
2022/05/12 04:50:08;;;;;;;11.13;3.00;;;10.30;99.90;;;;;;5051157;28;20028;-68
2022/05/12 04:52:34;;;;;;;8.43;2.33;;;10.40;99.90;;;;;;5049015;28;20566;-67
2022/05/12 04:54:59;;;;;;;9.30;2.38;;;10.40;99.90;;;;;;5030799;28;20041;-66
2022/05/12 04:57:25;;;;;;;5.97;2.97;;;10.50;99.90;;;;;;5041014;28;20092;-67
2022/05/12 04:59:55;;;;;;;6.40;2.58;;;10.50;99.90;;;;;;5036804;28;20044;-68
2022/05/12 05:02:21;;;;;;;9.65;2.58;;;10.60;99.90;;;;;;5035005;28;20512;-68
2022/05/12 05:04:48;;;;;;;9.75;2.88;;;10.60;99.90;;;;;;5038322;28;20457;-67
2022/05/12 05:07:14;;;;;;;10.43;2.75;;;10.70;99.90;;;;;;5035477;28;20031;-65
2022/05/12 05:09:41;;;;;;;4.30;2.00;;;10.70;99.90;;;;;;5033271;28;20408;-68
2022/05/12 05:12:07;;;;;;;5.63;2.00;;;10.70;99.90;;;;;;5033052;28;20747;-68
2022/05/12 05:14:33;;;;;;;7.55;2.28;;;10.80;99.90;;;;;;5034074;28;20060;-68
2022/05/12 05:16:59;;;;;;;6.22;2.47;;;10.80;99.90;;;;;;5035423;28;20064;-67
2022/05/12 05:19:24;;;;;;;6.22;2.55;;;10.90;99.90;;;;;;5032174;28;20033;-66
2022/05/12 05:21:50;;;;;;;5.63;2.08;;;10.90;99.90;;;;;;5037575;28;20037;-68
2022/05/12 05:24:16;;;;;;;5.93;2.30;;;11.00;99.90;;;;;;5031101;28;20030;-67
2022/05/12 05:26:41;;;;;;;9.25;2.33;;;11.00;99.90;;;;;;5031291;28;20056;-65
2022/05/12 05:29:07;;;;;;;7.85;2.78;;;11.10;99.90;;;;;;5037696;28;20033;-69
2022/05/12 05:31:35;;;;;;;8.25;2.35;;;11.20;99.90;;;;;;5036143;28;20144;-67
2022/05/12 05:34:01;;;;;;;4.72;2.17;;;11.30;99.90;;;;;;5031419;28;20041;-70
2022/05/12 05:36:27;;;;;;;10.30;2.30;;;11.40;99.90;;;;;;5036216;28;20029;-68
2022/05/12 05:38:52;;;;;;;4.55;2.50;;;11.40;99.90;;;;;;5032335;28;20105;-69
2022/05/12 05:41:18;;;;;;;7.05;1.90;;;11.60;99.90;;;;;;5033586;28;20508;-67
2022/05/12 05:43:44;;;;;;;5.40;1.70;;;12.00;99.90;;;;;;5033988;28;20041;-67
2022/05/12 05:46:10;;;;;;;11.73;2.40;;;12.30;99.90;;;;;;5034008;28;20035;-71
2022/05/12 05:48:36;;;;;;;7.15;2.28;;;12.60;99.90;;;;;;5032529;28;20108;-66
2022/05/12 05:53:45;;;;;;;4.82;1.58;;;14.00;99.90;;;;;;5035374;28;20080;-67
2022/05/12 05:56:15;;;;;;;8.23;2.03;;;15.70;99.90;;;;;;5035877;28;20480;-69
2022/05/12 05:58:45;;;;;;;2.97;1.30;;;17.40;99.90;;;;;;5029330;28;20048;-69
2022/05/12 06:01:11;;;;;;;;;;;19.20;99.90;;;;;;5032296;28;20029;-68
2022/05/12 06:03:38;;;;;;;5.15;1.02;;;20.40;99.90;;;;;;5036132;28;19939;-69
2022/05/12 06:06:04;;;;;;;2.58;1.17;;;21.60;99.90;;;;;;5033411;28;20397;-67
2022/05/12 06:08:29;;;;;;;3.88;0.95;;;22.40;99.90;;;;;;5033580;28;20033;-67
2022/05/12 06:10:58;;;;;;;5.47;1.05;;;22.90;99.90;;;;;;5037088;28;20112;-67
2022/05/12 06:13:23;;;;;;;9.10;1.20;;;23.40;99.90;;;;;;5031767;28;20037;-68
2022/05/12 06:15:50;;;;;;;4.85;1.50;;;24.10;98.70;;;;;;5033565;28;20056;-70
2022/05/12 06:18:17;;;;;;;12.55;1.17;;;24.80;96.00;;;;;;5033331;28;20153;-69
2022/05/12 06:20:44;;;;;;;5.40;1.42;;;25.00;94.40;;;;;;5035402;28;20091;-69
2022/05/12 06:23:12;;;;;;;4.78;1.45;;;25.40;93.00;;;;;;5034076;28;20529;-70
2022/05/12 06:25:38;;;;;;;2.45;1.20;;;25.80;92.10;;;;;;5029058;28;20588;-69
2022/05/12 06:28:05;;;;;;;1.98;1.08;;;26.20;90.90;;;;;;5034995;28;20076;-70
2022/05/12 06:30:30;;;;;;;6.10;1.25;;;26.70;89.00;;;;;;5033672;28;20520;-67
2022/05/12 06:32:56;;;;;;;6.40;1.50;;;26.60;87.70;;;;;;5031877;28;20087;-70
2022/05/12 06:35:24;;;;;;;5.50;1.33;;;26.70;86.40;;;;;;5037082;28;20034;-69
2022/05/12 06:37:50;;;;;;;3.00;1.45;;;26.50;86.10;;;;;;5034924;28;20178;-69
2022/05/12 06:40:17;;;;;;;3.53;1.20;;;26.70;85.60;;;;;;5030763;28;20124;-69
2022/05/12 06:42:43;;;;;;;8.48;1.85;;;26.90;82.50;;;;;;5035224;28;20060;-71
2022/05/12 06:45:12;;;;;;;6.50;1.33;;;27.30;82.60;;;;;;5034429;28;20037;-69
2022/05/12 06:47:37;;;;;;;6.78;1.48;;;27.20;80.80;;;;;;5028979;28;20043;-70
2022/05/12 06:50:04;;;;;;;5.57;1.40;;;27.50;81.00;;;;;;5034692;28;20033;-68
2022/05/12 06:52:30;;;;;;;3.50;1.15;;;27.80;78.40;;;;;;5036116;28;20409;-68
2022/05/12 06:54:56;;;;;;;2.83;1.25;;;27.80;77.80;;;;;;5032752;28;20064;-71
2022/05/12 06:57:27;;;;;;;10.73;1.60;;;28.10;76.50;;;;;;5032070;28;20130;-69
2022/05/12 06:59:53;;;;;;;4.43;1.60;;;28.30;73.10;;;;;;5036016;28;20049;-69
2022/05/12 07:02:19;;;;;;;7.57;1.42;;;28.90;73.20;;;;;;5035604;28;20119;-69
2022/05/12 07:04:46;;;;;;;8.82;1.88;;;28.80;73.10;;;;;;5032502;28;20065;-70
2022/05/12 07:07:12;;;;;;;4.82;1.52;;;28.80;69.50;;;;;;5035306;28;20022;-68
2022/05/12 07:09:38;;;;;;;8.15;1.65;;;28.90;69.40;;;;;;5032980;28;20612;-71
2022/05/12 07:12:04;;;;;;;2.95;1.45;;;28.80;69.60;;;;;;5033863;28;20028;-70
2022/05/12 07:14:31;;;;;;;4.80;1.30;;;28.80;67.20;;;;;;5035301;28;20040;-70
2022/05/12 07:16:57;;;;;;;7.93;1.52;;;28.80;69.00;;;;;;5034030;28;20498;-69
2022/05/12 07:19:23;;;;;;;6.80;1.75;;;28.90;69.20;;;;;;5034950;28;20112;-71
2022/05/12 07:27:19;;;;;;;4.68;1.80;;;29.30;66.10;;;;;;5032321;28;20052;-71
2022/05/12 07:29:44;;;;;;;3.67;1.52;;;29.10;65.90;;;;;;5032316;28;20631;-71
2022/05/12 07:32:11;;;;;;;3.65;0.98;;;28.90;64.20;;;;;;5033693;28;20112;-71
2022/05/12 07:34:36;;;;;;;6.32;1.80;;;28.20;66.30;;;;;;5037756;28;20040;-70
2022/05/12 07:37:03;;;;;;;3.90;1.23;;;27.80;64.60;;;;;;5032145;28;20025;-69
2022/05/12 07:39:30;;;;;;;6.15;1.75;;;27.40;65.50;;;;;;5035157;28;20026;-71
2022/05/12 07:41:57;;;;;;;7.28;1.58;;;27.00;66.20;;;;;;5038985;28;20044;-66
2022/05/12 07:44:31;;;;;;;5.40;1.20;;;26.30;67.90;;;;;;5036783;28;20033;-69
2022/05/12 07:46:58;;;;;;;6.13;0.93;;;25.70;64.30;;;;;;5038748;28;20028;-68
2022/05/12 07:49:24;;;;;;;5.80;1.20;;;24.50;68.30;;;;;;5046841;28;20026;-68
2022/05/12 07:51:50;;;;;;;4.60;1.08;;;23.60;69.00;;;;;;5045084;28;20079;-69
2022/05/12 07:54:16;;;;;;;5.45;0.90;;;22.80;72.10;;;;;;5042385;28;20026;-68
2022/05/12 07:56:42;;;;;;;5.47;1.10;;;22.20;72.80;;;;;;5042322;28;20046;-69
2022/05/12 07:59:07;;;;;;;6.47;1.10;;;22.00;75.60;;;;;;5041011;28;20037;-69
2022/05/12 08:01:33;;;;;;;6.13;1.30;;;21.70;76.60;;;;;;5030686;28;20045;-68
2022/05/12 08:03:58;;;;;;;5.15;1.27;;;21.50;78.90;;;;;;5034894;28;20025;-66
2022/05/12 08:06:24;;;;;;;4.15;0.90;;;21.40;80.30;;;;;;5036117;28;20040;-69
2022/05/12 08:08:51;;;;;;;1.67;0.77;;;21.20;77.20;;;;;;5033447;28;20429;-68
2022/05/12 08:11:19;;;;;;;4.43;1.20;;;20.80;78.60;;;;;;5037205;28;20527;-67
2022/05/12 08:13:46;;;;;;;3.05;0.75;;;20.80;79.30;;;;;;5039826;28;20090;-68
2022/05/12 08:16:13;;;;;;;9.18;0.93;;;20.60;80.40;;;;;;5033304;28;20033;-68
2022/05/12 08:18:39;;;;;;;6.57;0.88;;;20.50;81.60;;;;;;5034283;28;20133;-68
2022/05/12 08:21:05;;;;;;;2.03;0.60;;;20.50;80.70;;;;;;5036986;28;20045;-68
2022/05/12 08:23:31;;;;;;;3.40;0.85;;;20.60;81.00;;;;;;5036147;28;20030;-68
2022/05/12 08:25:57;;;;;;;2.33;0.85;;;20.80;81.50;;;;;;5038542;28;20063;-68
2022/05/12 08:28:24;;;;;;;5.97;0.73;;;20.80;80.60;;;;;;5032974;28;20144;-67
2022/05/12 08:30:50;;;;;;;2.40;0.68;;;20.70;79.10;;;;;;5042010;28;20045;-69
2022/05/12 08:33:17;;;;;;;2.65;1.05;;;20.80;79.40;;;;;;5039303;28;20037;-67
2022/05/12 08:35:43;;;;;;;4.18;0.40;;;20.60;79.00;;;;;;5036894;28;20400;-70
2022/05/12 08:38:11;;;;;;;2.15;0.50;;;20.60;80.30;;;;;;5036069;28;20120;-67
2022/05/12 08:40:52;;;;;;;3.58;0.77;;;20.60;80.30;;;;;;5038676;28;20061;-69
2022/05/12 08:43:40;;;;;;;3.17;0.65;;;20.80;78.70;;;;;;5034124;28;20033;-68
2022/05/12 08:46:10;;;;;;;7.20;0.55;;;20.80;78.40;;;;;;5031714;28;20039;-68
2022/05/12 08:48:41;;;;;;;1.70;0.60;;;20.80;79.60;;;;;;5035034;28;20038;-69
2022/05/12 08:51:08;;;;;;;4.88;1.15;;;20.80;77.10;;;;;;5036882;28;20033;-68
2022/05/12 08:53:44;;;;;;;1.50;0.35;;;20.70;78.10;;;;;;5035118;28;20594;-69
2022/05/12 08:56:12;;;;;;;1.95;0.47;;;20.80;77.70;;;;;;5031442;28;20521;-68
2022/05/12 08:58:40;;;;;;;1.98;0.55;;;20.90;77.10;;;;;;5033679;28;20416;-68
2022/05/12 09:01:36;;;;;;;2.78;0.45;;;20.90;77.20;;;;;;5037766;28;20449;-68
2022/05/12 09:04:17;;;;;;;4.43;0.77;;;21.00;77.70;;;;;;5033703;28;20044;-70
2022/05/12 09:07:12;;;;;;;8.25;0.75;;;21.00;73.80;;;;;;5030894;28;20061;-70
2022/05/12 09:10:16;;;;;;;1.83;0.65;;;20.70;75.60;;;;;;5030579;28;20049;-69
2022/05/12 09:12:51;;;;;;;2.17;0.40;;;20.60;76.90;;;;;;5032602;28;20029;-69
2022/05/12 09:15:23;;;;;;;2.30;0.40;;;20.80;75.60;;;;;;5039583;28;20504;-70
2022/05/12 09:18:03;;;;;;;1.23;0.30;;;20.90;73.60;;;;;;5038170;28;20041;-71
2022/05/12 09:20:33;;;;;;;4.95;0.57;;;20.80;71.70;;;;;;5030761;28;20451;-70
2022/05/12 09:23:00;;;;;;;3.45;0.63;;;20.70;72.60;;;;;;5032006;28;20033;-70
2022/05/12 09:25:39;;;;;;;2.72;0.90;;;20.60;74.50;;;;;;5035418;28;20045;-70
2022/05/12 09:28:27;;;;;;;1.45;0.40;;;20.60;75.80;;;;;;5035004;28;20048;-69
2022/05/12 09:30:58;;;;;;;3.58;0.30;;;20.90;75.50;;;;;;5035218;28;20025;-70
2022/05/12 09:33:36;;;;;;;4.43;0.82;;;20.90;75.40;;;;;;5035721;28;20025;-74
2022/05/12 09:36:08;;;;;;;4.63;0.47;;;21.20;73.50;;;;;;5030060;28;20069;-68
2022/05/12 09:38:45;;;;;;;1.92;0.50;;;21.20;75.10;;;;;;5031029;28;20037;-68
2022/05/12 09:41:17;;;;;;;1.38;0.52;;;21.40;73.60;;;;;;5032065;28;20042;-69
2022/05/12 09:43:43;;;;;;;3.33;0.57;;;21.60;73.80;;;;;;5030385;28;20093;-70
2022/05/12 09:46:29;;;;;;;3.67;0.70;;;21.70;73.20;;;;;;5037814;28;20414;-68
2022/05/12 09:49:14;;;;;;;3.53;0.63;;;21.70;70.70;;;;;;5034843;28;20033;-69
2022/05/12 09:51:40;;;;;;;2.83;0.45;;;21.70;72.40;;;;;;5033189;28;20032;-69
2022/05/12 09:54:15;;;;;;;0.85;0.20;;;21.70;70.90;;;;;;5040525;28;20048;-67
2022/05/12 09:56:41;;;;;;;1.35;0.32;;;21.70;71.40;;;;;;5035446;28;20046;-68
2022/05/12 09:59:23;;;;;;;2.28;0.40;;;21.90;72.20;;;;;;5036338;28;20048;-69
2022/05/12 10:01:53;;;;;;;0.90;0.47;;;22.00;73.70;;;;;;5034358;28;20128;-70
2022/05/12 10:10:15;;;;;;;4.65;1.02;;;21.90;68.70;;;;;;5035096;28;20036;-69
2022/05/12 10:12:57;;;;;;;2.55;0.40;;;21.90;68.00;;;;;;5034247;28;20052;-68
2022/05/12 10:15:43;;;;;;;2.55;0.50;;;22.00;69.70;;;;;;5033540;28;20507;-69
2022/05/12 10:18:09;;;;;;;1.77;0.32;;;22.30;70.00;;;;;;5028282;28;20026;-68
2022/05/12 10:20:42;;;;;;;2.97;0.65;;;22.50;69.80;;;;;;5029187;28;20049;-71
2022/05/12 10:23:35;;;;;;;1.05;0.50;;;22.60;66.90;;;;;;5027478;28;20072;-69
2022/05/12 10:26:20;;;;;;;0.70;0.40;;;22.80;65.50;;;;;;5028705;28;20157;-69
2022/05/12 10:29:13;;;;;;;2.03;0.50;;;22.80;67.00;;;;;;5030482;28;20509;-69
2022/05/12 10:31:44;;;;;;;2.67;0.20;;;22.90;66.20;;;;;;5027344;28;20040;-69
2022/05/12 10:34:19;;;;;;;2.65;0.63;;;22.70;68.20;;;;;;5028772;28;20044;-69
2022/05/12 10:37:00;;;;;;;4.57;0.35;;;22.60;66.10;;;;;;5031347;28;20041;-69
2022/05/12 10:39:40;;;;;;;1.73;0.35;;;22.50;66.90;;;;;;5026852;28;20033;-71
2022/05/12 10:42:24;;;;;;;;;;;22.30;66.60;;;;;;5027222;28;20103;-69
2022/05/12 10:45:27;;;;;;;2.22;0.57;;;22.10;66.00;;;;;;5029059;28;19912;-70
2022/05/12 10:48:26;;;;;;;3.63;0.57;;;22.20;65.80;;;;;;5023985;28;20041;-71
2022/05/12 10:51:03;;;;;;;2.15;0.45;;;22.30;66.70;;;;;;5027182;28;21206;-69
2022/05/12 10:53:50;;;;;;;3.35;0.50;;;22.20;65.40;;;;;;5022609;28;20033;-70
2022/05/12 10:56:54;;;;;;;4.18;0.43;;;22.20;65.10;;;;;;5027481;28;20033;-68
2022/05/12 11:00:03;;;;;;;3.25;0.50;;;22.20;65.50;;;;;;5032680;28;20040;-67
2022/05/12 11:02:35;;;;;;;5.50;0.40;;;22.10;66.50;;;;;;5027426;28;20040;-68
2022/05/12 11:05:10;;;;;;;1.85;0.50;;;22.20;65.70;;;;;;5029580;28;20411;-68
2022/05/12 11:07:42;;;;;;;4.93;0.60;;;22.50;64.90;;;;;;5036265;28;20116;-68
2022/05/12 11:10:30;;;;;;;3.60;0.40;;;22.60;63.90;;;;;;5033952;28;20036;-69
2022/05/12 11:13:01;;;;;;;2.85;0.60;;;22.60;61.90;;;;;;5029223;28;20064;-68
2022/05/12 11:15:55;;;;;;;1.55;0.30;;;22.40;62.40;;;;;;5029503;28;20026;-68
2022/05/12 11:18:34;;;;;;;1.45;0.50;;;22.30;62.20;;;;;;5029914;28;20069;-70
2022/05/12 11:21:19;;;;;;;3.37;0.67;;;22.10;63.80;;;;;;5030458;28;20487;-69
2022/05/12 11:23:59;;;;;;;1.88;0.30;;;22.10;63.50;;;;;;5030448;28;20440;-68
2022/05/12 11:26:43;;;;;;;;;;;22.10;67.60;;;;;;5025443;28;20029;-68
2022/05/12 11:29:53;;;;;;;3.42;0.40;;;22.10;63.40;;;;;;5031462;28;19913;-70
2022/05/12 11:32:27;;;;;;;5.38;1.20;;;21.80;64.90;;;;;;5025120;28;20391;-67
2022/05/12 11:34:59;;;;;;;1.45;0.20;;;21.50;64.70;;;;;;5033544;28;20099;-68
2022/05/12 11:37:31;;;;;;;1.27;0.50;;;21.20;64.60;;;;;;5032044;28;20025;-68
2022/05/12 11:40:00;;;;;;;2.92;0.70;;;21.10;65.60;;;;;;5030488;28;20083;-65
2022/05/12 11:42:28;;;;;;;1.23;0.60;;;21.10;66.40;;;;;;5035762;28;20473;-66
2022/05/12 11:45:02;;;;;;;4.03;0.55;;;21.10;66.20;;;;;;5034759;28;20029;-67
2022/05/12 11:47:47;;;;;;;1.33;0.43;;;21.10;67.40;;;;;;5031785;28;20036;-69
2022/05/12 11:50:46;;;;;;;2.20;0.80;;;21.00;68.30;;;;;;5031637;28;20164;-68
2022/05/12 11:53:22;;;;;;;5.47;0.60;;;21.20;67.80;;;;;;5025639;28;20095;-65
2022/05/12 11:56:23;;;;;;;2.17;0.40;;;21.30;67.00;;;;;;5031950;28;20036;-68
2022/05/12 11:59:13;;;;;;;0.85;0.20;;;21.50;67.20;;;;;;5022921;28;20113;-66
2022/05/12 12:01:39;;;;;;;2.55;0.88;;;21.70;64.90;;;;;;5032272;28;20501;-68
2022/05/12 12:04:05;;;;;;;3.65;0.60;;;21.60;65.80;;;;;;5028942;28;20029;-66
2022/05/12 12:06:43;;;;;;;1.75;0.28;;;21.50;66.30;;;;;;5036680;28;20108;-67
2022/05/12 12:09:33;;;;;;;1.77;0.45;;;21.50;67.00;;;;;;5033021;28;20045;-67
2022/05/12 12:11:59;;;;;;;5.30;0.52;;;21.60;66.40;;;;;;5029586;28;20029;-69
2022/05/12 12:14:43;;;;;;;2.25;0.32;;;21.60;64.90;;;;;;5031996;28;20037;-68
2022/05/12 12:17:36;;;;;;;3.70;0.55;;;21.50;65.80;;;;;;5034303;28;20416;-67
2022/05/12 12:20:11;;;;;;;1.55;0.22;;;21.50;66.10;;;;;;5028850;28;20056;-68
2022/05/12 12:22:48;;;;;;;1.02;0.28;;;21.50;66.90;;;;;;5030214;28;20044;-69
2022/05/12 12:25:25;;;;;;;6.35;0.30;;;21.40;66.40;;;;;;5029760;28;20044;-66
2022/05/12 12:27:55;;;;;;;3.88;0.70;;;21.20;66.70;;;;;;5030224;28;20129;-68
2022/05/12 12:30:23;;;;;;;3.38;0.30;;;21.00;67.40;;;;;;5031202;28;20033;-66
2022/05/12 12:33:11;;;;;;;2.78;0.60;;;20.90;66.60;;;;;;5030436;28;20396;-66
2022/05/12 12:36:17;;;;;;;3.20;0.47;;;21.00;65.60;;;;;;5025856;28;20028;-68
2022/05/12 12:38:48;;;;;;;4.15;0.90;;;21.10;66.80;;;;;;5032756;28;20045;-68
2022/05/12 12:41:29;;;;;;;1.70;0.30;;;21.20;64.30;;;;;;5029861;28;20108;-68
2022/05/12 12:44:14;;;;;;;0.90;0.38;;;21.30;65.10;;;;;;5028907;28;20072;-68
2022/05/12 12:47:01;;;;;;;4.40;0.40;;;21.20;64.40;;;;;;5030702;28;20033;-68
2022/05/12 12:49:31;;;;;;;3.22;0.38;;;20.90;64.50;;;;;;5026116;28;20054;-67
2022/05/12 12:52:03;;;;;;;3.17;0.30;;;20.80;65.90;;;;;;5033041;28;20405;-66
2022/05/12 12:57:28;;;;;;;1.23;0.20;;;20.90;65.80;;;;;;5027878;28;20044;-65
2022/05/12 12:59:56;;;;;;;1.48;0.30;;;20.90;66.60;;;;;;5028454;28;20045;-68
2022/05/12 13:02:42;;;;;;;2.33;0.30;;;21.00;64.80;;;;;;5033935;28;20675;-66
2022/05/12 13:05:16;;;;;;;4.45;0.40;;;21.00;64.90;;;;;;5029899;28;20505;-66
2022/05/12 13:07:43;;;;;;;1.88;0.57;;;21.20;66.00;;;;;;5033616;28;20094;-68
2022/05/12 13:10:16;;;;;;;3.80;0.40;;;21.30;65.70;;;;;;5035506;28;20048;-65
2022/05/12 13:12:57;;;;;;;2.22;0.40;;;21.40;66.70;;;;;;5037820;28;20127;-66
2022/05/12 13:15:23;;;;;;;2.28;0.43;;;21.30;65.80;;;;;;5031375;28;20107;-66
2022/05/12 13:17:51;;;;;;;3.42;0.40;;;21.20;67.10;;;;;;5033005;28;20120;-69
2022/05/12 13:20:21;;;;;;;2.25;0.60;;;21.10;66.40;;;;;;5037511;28;20041;-69
2022/05/12 13:23:01;;;;;;;1.38;0.30;;;21.10;66.60;;;;;;5037680;28;20041;-67
2022/05/12 13:25:30;;;;;;;4.28;0.70;;;21.00;66.40;;;;;;5033028;28;20060;-68